sensor_id;sensor_type;location;lat;lon;timestamp;pressure;altitude;pressure_sealevel;temperature;humidity
62418;BME280;48456;54.242;10.280;2023-01-30T00:00:50;100569.00;;;3.43;100.00
62418;BME280;48456;54.242;10.280;2023-01-30T00:03:17;100570.78;;;3.46;100.00
62418;BME280;48456;54.242;10.280;2023-01-30T00:05:44;100569.94;;;3.47;100.00
62418;BME280;48456;54.242;10.280;2023-01-30T00:08:10;100536.72;;;3.43;100.00
62418;BME280;48456;54.242;10.280;2023-01-30T00:10:36;100496.75;;;3.48;100.00
62418;BME280;48456;54.242;10.280;2023-01-30T00:13:03;100499.44;;;3.51;100.00
62418;BME280;48456;54.242;10.280;2023-01-30T00:15:29;100488.09;;;3.53;100.00
62418;BME280;48456;54.242;10.280;2023-01-30T00:17:55;100476.00;;;3.56;100.00
62418;BME280;48456;54.242;10.280;2023-01-30T00:20:22;100472.44;;;3.54;100.00
62418;BME280;48456;54.242;10.280;2023-01-30T00:22:48;100464.72;;;3.62;100.00
62418;BME280;48456;54.242;10.280;2023-01-30T00:25:26;100441.13;;;3.57;100.00
62418;BME280;48456;54.242;10.280;2023-01-30T00:27:53;100446.34;;;3.57;100.00
62418;BME280;48456;54.242;10.280;2023-01-30T00:30:19;100630.22;;;3.53;100.00
62418;BME280;48456;54.242;10.280;2023-01-30T00:32:45;100430.59;;;3.54;100.00
62418;BME280;48456;54.242;10.280;2023-01-30T00:35:12;100428.19;;;3.65;100.00
62418;BME280;48456;54.242;10.280;2023-01-30T00:37:38;100433.41;;;3.65;100.00
62418;BME280;48456;54.242;10.280;2023-01-30T00:40:05;100421.28;;;3.69;100.00
62418;BME280;48456;54.242;10.280;2023-01-30T00:42:31;100422.13;;;3.68;100.00
62418;BME280;48456;54.242;10.280;2023-01-30T00:45:16;100614.78;;;3.64;100.00
62418;BME280;48456;54.242;10.280;2023-01-30T00:48:01;100606.97;;;3.66;100.00
62418;BME280;48456;54.242;10.280;2023-01-30T00:50:27;100612.19;;;3.66;100.00
62418;BME280;48456;54.242;10.280;2023-01-30T00:53:08;100601.69;;;3.64;100.00
62418;BME280;48456;54.242;10.280;2023-01-30T00:55:35;100591.28;;;3.67;100.00
62418;BME280;48456;54.242;10.280;2023-01-30T00:58:01;100585.22;;;3.68;100.00
62418;BME280;48456;54.242;10.280;2023-01-30T01:00:27;100580.00;;;3.70;100.00
62418;BME280;48456;54.242;10.280;2023-01-30T01:02:54;100578.25;;;3.70;100.00
62418;BME280;48456;54.242;10.280;2023-01-30T01:05:20;100585.31;;;3.73;100.00
62418;BME280;48456;54.242;10.280;2023-01-30T01:07:46;100568.69;;;3.71;100.00
62418;BME280;48456;54.242;10.280;2023-01-30T01:10:13;100581.84;;;3.74;100.00
62418;BME280;48456;54.242;10.280;2023-01-30T01:12:41;100557.25;;;3.66;100.00
62418;BME280;48456;54.242;10.280;2023-01-30T01:15:10;100556.44;;;3.68;100.00
62418;BME280;48456;54.242;10.280;2023-01-30T01:17:37;100569.63;;;3.74;100.00
62418;BME280;48456;54.242;10.280;2023-01-30T01:20:04;100565.31;;;3.76;100.00
62418;BME280;48456;54.242;10.280;2023-01-30T01:22:30;100568.81;;;3.79;100.00
62418;BME280;48456;54.242;10.280;2023-01-30T01:24:57;100574.13;;;3.82;100.00
62418;BME280;48456;54.242;10.280;2023-01-30T01:27:23;100583.78;;;3.84;100.00
62418;BME280;48456;54.242;10.280;2023-01-30T01:29:50;100589.94;;;3.86;100.00
62418;BME280;48456;54.242;10.280;2023-01-30T01:32:16;100595.19;;;3.88;100.00
62418;BME280;48456;54.242;10.280;2023-01-30T01:34:42;100596.13;;;3.92;100.00
62418;BME280;48456;54.242;10.280;2023-01-30T01:37:08;100598.75;;;3.92;100.00
62418;BME280;48456;54.242;10.280;2023-01-30T01:39:35;100596.09;;;3.90;100.00
62418;BME280;48456;54.242;10.280;2023-01-30T01:42:20;100604.88;;;3.94;100.00
62418;BME280;48456;54.242;10.280;2023-01-30T01:47:25;100613.72;;;3.99;100.00
62418;BME280;48456;54.242;10.280;2023-01-30T01:49:52;100628.66;;;4.03;100.00
62418;BME280;48456;54.242;10.280;2023-01-30T01:52:18;100626.88;;;4.03;100.00
62418;BME280;48456;54.242;10.280;2023-01-30T01:54:49;100635.63;;;4.04;100.00
62418;BME280;48456;54.242;10.280;2023-01-30T01:57:18;100625.22;;;4.06;100.00
62418;BME280;48456;54.242;10.280;2023-01-30T01:59:50;100636.56;;;4.08;100.00
62418;BME280;48456;54.242;10.280;2023-01-30T02:02:18;100645.38;;;4.11;100.00
62418;BME280;48456;54.242;10.280;2023-01-30T02:04:46;100658.56;;;4.16;100.00
62418;BME280;48456;54.242;10.280;2023-01-30T02:07:33;100679.63;;;4.22;100.00
62418;BME280;48456;54.242;10.280;2023-01-30T02:10:00;100695.50;;;4.30;100.00
62418;BME280;48456;54.242;10.280;2023-01-30T02:12:27;100708.66;;;4.33;100.00
62418;BME280;48456;54.242;10.280;2023-01-30T02:14:53;100706.03;;;4.33;100.00
62418;BME280;48456;54.242;10.280;2023-01-30T02:17:21;100718.34;;;4.37;100.00
62418;BME280;48456;54.242;10.280;2023-01-30T02:38:00;100686.69;;;4.26;100.00
62418;BME280;48456;54.242;10.280;2023-01-30T02:40:33;100720.91;;;4.36;100.00
62418;BME280;48456;54.242;10.280;2023-01-30T02:48:13;100750.84;;;4.49;100.00
62418;BME280;48456;54.242;10.280;2023-01-30T02:50:43;100773.63;;;4.53;100.00
62418;BME280;48456;54.242;10.280;2023-01-30T02:53:11;100765.81;;;4.54;100.00
62418;BME280;48456;54.242;10.280;2023-01-30T02:55:39;100790.34;;;4.58;100.00
62418;BME280;48456;54.242;10.280;2023-01-30T02:58:05;100786.84;;;4.58;100.00
62418;BME280;48456;54.242;10.280;2023-01-30T03:00:51;100780.66;;;4.55;100.00
62418;BME280;48456;54.242;10.280;2023-01-30T03:03:26;100775.31;;;4.49;100.00
62418;BME280;48456;54.242;10.280;2023-01-30T03:08:51;100736.63;;;4.36;100.00
62418;BME280;48456;54.242;10.280;2023-01-30T03:11:23;100716.34;;;4.25;100.00
62418;BME280;48456;54.242;10.280;2023-01-30T03:13:54;100676.84;;;4.14;100.00
62418;BME280;48456;54.242;10.280;2023-01-30T03:16:29;100645.19;;;4.02;100.00
62418;BME280;48456;54.242;10.280;2023-01-30T03:18:58;100619.72;;;3.93;100.00
62418;BME280;48456;54.242;10.280;2023-01-30T03:21:25;100605.66;;;3.88;100.00
62418;BME280;48456;54.242;10.280;2023-01-30T03:23:51;100594.28;;;3.86;100.00
62418;BME280;48456;54.242;10.280;2023-01-30T03:26:19;100556.50;;;3.71;100.00
62418;BME280;48456;54.242;10.280;2023-01-30T03:28:48;100568.75;;;3.74;100.00
62418;BME280;48456;54.242;10.280;2023-01-30T03:31:14;100558.25;;;3.72;100.00
62418;BME280;48456;54.242;10.280;2023-01-30T03:33:41;100564.38;;;3.74;100.00
62418;BME280;48456;54.242;10.280;2023-01-30T03:36:07;100540.69;;;3.67;100.00
62418;BME280;48456;54.242;10.280;2023-01-30T03:38:34;100545.94;;;3.67;100.00
62418;BME280;48456;54.242;10.280;2023-01-30T03:41:01;100542.38;;;3.63;100.00
62418;BME280;48456;54.242;10.280;2023-01-30T03:43:28;100535.34;;;3.60;100.00
62418;BME280;48456;54.242;10.280;2023-01-30T03:45:54;100536.22;;;3.61;100.00
62418;BME280;48456;54.242;10.280;2023-01-30T03:48:20;100541.44;;;3.61;100.00
62418;BME280;48456;54.242;10.280;2023-01-30T03:50:48;100545.81;;;3.60;100.00
62418;BME280;48456;54.242;10.280;2023-01-30T03:53:14;100543.16;;;3.59;100.00
62418;BME280;48456;54.242;10.280;2023-01-30T03:55:40;100529.13;;;3.55;100.00
62418;BME280;48456;54.242;10.280;2023-01-30T03:58:07;100534.41;;;3.57;100.00
62418;BME280;48456;54.242;10.280;2023-01-30T04:00:33;100523.00;;;3.53;100.00
62418;BME280;48456;54.242;10.280;2023-01-30T04:02:59;100515.97;;;3.50;100.00
62418;BME280;48456;54.242;10.280;2023-01-30T04:05:26;100515.97;;;3.50;100.00
62418;BME280;48456;54.242;10.280;2023-01-30T04:07:54;100525.56;;;3.51;100.00
62418;BME280;48456;54.242;10.280;2023-01-30T04:10:21;100536.97;;;3.55;100.00
62418;BME280;48456;54.242;10.280;2023-01-30T04:12:47;100531.75;;;3.55;100.00
62418;BME280;48456;54.242;10.280;2023-01-30T04:15:14;100535.22;;;3.54;100.00
62418;BME280;48456;54.242;10.280;2023-01-30T04:17:41;100522.00;;;3.46;100.00
62418;BME280;48456;54.242;10.280;2023-01-30T04:20:08;100518.44;;;3.44;100.00
62418;BME280;48456;54.242;10.280;2023-01-30T04:22:34;100512.31;;;3.42;100.00
62418;BME280;48456;54.242;10.280;2023-01-30T04:25:01;100514.97;;;3.44;100.00
62418;BME280;48456;54.242;10.280;2023-01-30T04:27:28;100520.25;;;3.45;100.00
62418;BME280;48456;54.242;10.280;2023-01-30T04:29:54;100516.69;;;3.43;100.00
62418;BME280;48456;54.242;10.280;2023-01-30T04:32:21;100519.31;;;3.43;100.00
62418;BME280;48456;54.242;10.280;2023-01-30T04:34:47;100494.69;;;3.33;100.00
62418;BME280;48456;54.242;10.280;2023-01-30T04:37:13;100497.34;;;3.35;100.00
62418;BME280;48456;54.242;10.280;2023-01-30T04:39:40;100487.69;;;3.31;100.00
62418;BME280;48456;54.242;10.280;2023-01-30T04:42:06;100484.16;;;3.29;100.00
62418;BME280;48456;54.242;10.280;2023-01-30T04:44:32;100475.34;;;3.25;100.00
62418;BME280;48456;54.242;10.280;2023-01-30T04:46:59;100478.84;;;3.24;100.00
62418;BME280;48456;54.242;10.280;2023-01-30T04:49:25;100458.66;;;3.18;100.00
62418;BME280;48456;54.242;10.280;2023-01-30T04:51:51;100454.25;;;3.16;100.00
62418;BME280;48456;54.242;10.280;2023-01-30T04:54:18;100359.44;;;2.78;100.00
62418;BME280;48456;54.242;10.280;2023-01-30T04:56:44;100351.63;;;2.80;100.00
62418;BME280;48456;54.242;10.280;2023-01-30T04:59:10;100348.94;;;2.77;100.00
62418;BME280;48456;54.242;10.280;2023-01-30T05:01:37;100340.16;;;2.71;100.00
62418;BME280;48456;54.242;10.280;2023-01-30T05:04:04;100351.56;;;2.75;100.00
62418;BME280;48456;54.242;10.280;2023-01-30T05:06:31;100356.78;;;2.77;100.00
62418;BME280;48456;54.242;10.280;2023-01-30T05:08:58;100358.56;;;2.78;100.00
62418;BME280;48456;54.242;10.280;2023-01-30T05:11:25;100362.03;;;2.78;100.00
62418;BME280;48456;54.242;10.280;2023-01-30T05:13:51;100355.06;;;2.77;100.00
62418;BME280;48456;54.242;10.280;2023-01-30T05:16:19;100372.47;;;2.77;100.00
62418;BME280;48456;54.242;10.280;2023-01-30T05:18:46;100379.50;;;2.79;100.00
62418;BME280;48456;54.242;10.280;2023-01-30T05:21:17;100363.75;;;2.76;100.00
62418;BME280;48456;54.242;10.280;2023-01-30T05:23:44;100360.25;;;2.76;100.00
62418;BME280;48456;54.242;10.280;2023-01-30T05:26:10;100367.25;;;2.77;100.00
62418;BME280;48456;54.242;10.280;2023-01-30T05:28:37;100362.88;;;2.76;100.00
62418;BME280;48456;54.242;10.280;2023-01-30T05:31:04;100363.69;;;2.73;100.00
62418;BME280;48456;54.242;10.280;2023-01-30T05:33:31;100390.00;;;2.82;100.00
62418;BME280;48456;54.242;10.280;2023-01-30T05:35:58;100370.63;;;2.71;100.00
62418;BME280;48456;54.242;10.280;2023-01-30T05:38:25;100375.03;;;2.73;100.00
62418;BME280;48456;54.242;10.280;2023-01-30T05:41:01;100375.06;;;2.75;100.00
62418;BME280;48456;54.242;10.280;2023-01-30T05:43:28;100382.91;;;2.75;100.00
62418;BME280;48456;54.242;10.280;2023-01-30T05:45:55;100382.00;;;2.75;100.00
62418;BME280;48456;54.242;10.280;2023-01-30T05:48:22;100345.22;;;2.64;100.00
62418;BME280;48456;54.242;10.280;2023-01-30T05:50:52;100346.03;;;2.61;100.00
62418;BME280;48456;54.242;10.280;2023-01-30T05:53:19;100338.22;;;2.61;100.00
62418;BME280;48456;54.242;10.280;2023-01-30T05:55:45;100328.50;;;2.55;100.00
62418;BME280;48456;54.242;10.280;2023-01-30T05:58:12;100330.22;;;2.55;100.00
62418;BME280;48456;54.242;10.280;2023-01-30T06:00:38;100335.41;;;2.53;100.00
62418;BME280;48456;54.242;10.280;2023-01-30T06:03:04;100352.09;;;2.58;100.00
62418;BME280;48456;54.242;10.280;2023-01-30T06:05:31;100360.84;;;2.62;100.00
62418;BME280;48456;54.242;10.280;2023-01-30T06:07:57;100367.88;;;2.65;100.00
62418;BME280;48456;54.242;10.280;2023-01-30T06:10:23;100404.75;;;2.79;100.00
62418;BME280;48456;54.242;10.280;2023-01-30T06:12:50;100375.75;;;2.66;100.00
62418;BME280;48456;54.242;10.280;2023-01-30T06:15:16;100359.06;;;2.59;100.00
62418;BME280;48456;54.242;10.280;2023-01-30T06:17:43;100362.56;;;2.60;100.00
62418;BME280;48456;54.242;10.280;2023-01-30T06:20:09;100366.94;;;2.61;100.00
62418;BME280;48456;54.242;10.280;2023-01-30T06:22:36;100361.63;;;2.58;100.00
62418;BME280;48456;54.242;10.280;2023-01-30T06:25:03;100385.38;;;2.69;100.00
62418;BME280;48456;54.242;10.280;2023-01-30T06:27:29;100358.16;;;2.59;100.00
62418;BME280;48456;54.242;10.280;2023-01-30T06:29:55;100356.38;;;2.56;100.00
62418;BME280;48456;54.242;10.280;2023-01-30T06:32:22;100378.25;;;2.62;100.00
62418;BME280;48456;54.242;10.280;2023-01-30T06:34:48;100377.38;;;2.61;100.00
62418;BME280;48456;54.242;10.280;2023-01-30T06:37:14;100373.91;;;2.62;100.00
62418;BME280;48456;54.242;10.280;2023-01-30T06:39:41;100393.13;;;2.66;100.00
62418;BME280;48456;54.242;10.280;2023-01-30T06:42:07;100386.22;;;2.68;100.00
62418;BME280;48456;54.242;10.280;2023-01-30T06:44:34;100404.59;;;2.72;100.00
62418;BME280;48456;54.242;10.280;2023-01-30T06:47:00;100407.19;;;2.72;100.00
62418;BME280;48456;54.242;10.280;2023-01-30T06:49:26;100430.84;;;2.79;100.00
62418;BME280;48456;54.242;10.280;2023-01-30T06:51:53;100435.25;;;2.81;100.00
62418;BME280;48456;54.242;10.280;2023-01-30T06:54:19;100435.22;;;2.80;100.00
62418;BME280;48456;54.242;10.280;2023-01-30T06:56:45;100425.56;;;2.76;100.00
62418;BME280;48456;54.242;10.280;2023-01-30T06:59:11;100438.69;;;2.79;100.00
62418;BME280;48456;54.242;10.280;2023-01-30T07:01:38;100462.41;;;2.88;100.00
62418;BME280;48456;54.242;10.280;2023-01-30T07:04:04;100492.22;;;2.98;100.00
62418;BME280;48456;54.242;10.280;2023-01-30T07:06:31;100551.00;;;3.17;100.00
62418;BME280;48456;54.242;10.280;2023-01-30T07:08:57;100558.91;;;3.19;100.00
62418;BME280;48456;54.242;10.280;2023-01-30T07:11:24;100557.88;;;3.12;100.00
62418;BME280;48456;54.242;10.280;2023-01-30T07:13:50;100549.06;;;3.07;100.00
62418;BME280;48456;54.242;10.280;2023-01-30T07:16:17;100560.47;;;3.10;100.00
62418;BME280;48456;54.242;10.280;2023-01-30T07:18:43;100591.22;;;3.22;100.00
62418;BME280;48456;54.242;10.280;2023-01-30T07:21:10;100537.63;;;3.03;100.00
62418;BME280;48456;54.242;10.280;2023-01-30T07:23:36;100525.34;;;2.99;100.00
62418;BME280;48456;54.242;10.280;2023-01-30T07:26:03;100525.25;;;2.94;100.00
62418;BME280;48456;54.242;10.280;2023-01-30T07:28:30;100517.44;;;2.94;100.00
62418;BME280;48456;54.242;10.280;2023-01-30T07:30:59;100527.88;;;2.96;100.00
62418;BME280;48456;54.242;10.280;2023-01-30T07:33:25;100530.53;;;2.97;100.00
62418;BME280;48456;54.242;10.280;2023-01-30T07:35:52;100556.91;;;3.07;100.00
62418;BME280;48456;54.242;10.280;2023-01-30T07:38:18;100584.06;;;3.14;100.00
62418;BME280;48456;54.242;10.280;2023-01-30T07:40:45;100600.69;;;3.17;100.00
62418;BME280;48456;54.242;10.280;2023-01-30T07:43:12;100600.69;;;3.17;100.00
62418;BME280;48456;54.242;10.280;2023-01-30T07:45:39;100598.06;;;3.17;100.00
62418;BME280;48456;54.242;10.280;2023-01-30T07:48:06;100600.72;;;3.19;100.00
62418;BME280;48456;54.242;10.280;2023-01-30T07:50:33;100629.59;;;3.25;100.00
62418;BME280;48456;54.242;10.280;2023-01-30T07:53:03;100653.34;;;3.33;100.00
62418;BME280;48456;54.242;10.280;2023-01-30T07:55:29;100682.25;;;3.41;100.00
62418;BME280;48456;54.242;10.280;2023-01-30T07:57:56;100714.03;;;3.58;100.00
62418;BME280;48456;54.242;10.280;2023-01-30T08:00:22;100716.72;;;3.61;100.00
62418;BME280;48456;54.242;10.280;2023-01-30T08:02:49;100714.91;;;3.58;100.00
62418;BME280;48456;54.242;10.280;2023-01-30T08:05:15;100735.28;;;3.72;100.00
62418;BME280;48456;54.242;10.280;2023-01-30T08:07:41;100810.91;;;3.99;100.00
62418;BME280;48456;54.242;10.280;2023-01-30T08:10:08;100759.84;;;3.77;100.00
62418;BME280;48456;54.242;10.280;2023-01-30T08:12:38;100777.50;;;3.87;100.00
62418;BME280;48456;54.242;10.280;2023-01-30T08:15:05;100778.41;;;3.88;100.00
62418;BME280;48456;54.242;10.280;2023-01-30T08:17:31;100764.25;;;3.81;100.00
62418;BME280;48456;54.242;10.280;2023-01-30T08:19:57;100746.66;;;3.74;100.00
62418;BME280;48456;54.242;10.280;2023-01-30T08:22:24;100750.06;;;3.70;100.00
62418;BME280;48456;54.242;10.280;2023-01-30T08:24:50;100743.06;;;3.69;100.00
62418;BME280;48456;54.242;10.280;2023-01-30T08:27:16;100762.31;;;3.72;100.00
62418;BME280;48456;54.242;10.280;2023-01-30T08:29:43;100718.34;;;3.56;100.00
62418;BME280;48456;54.242;10.280;2023-01-30T08:32:09;100697.22;;;3.46;100.00
62418;BME280;48456;54.242;10.280;2023-01-30T08:34:36;100677.94;;;3.41;100.00
62418;BME280;48456;54.242;10.280;2023-01-30T08:37:02;100673.53;;;3.40;100.00
62418;BME280;48456;54.242;10.280;2023-01-30T08:39:28;100672.56;;;3.36;100.00
62418;BME280;48456;54.242;10.280;2023-01-30T08:41:55;100671.69;;;3.36;100.00
62418;BME280;48456;54.242;10.280;2023-01-30T08:44:21;100656.81;;;3.33;100.00
62418;BME280;48456;54.242;10.280;2023-01-30T08:46:48;100667.13;;;3.27;100.00
62418;BME280;48456;54.242;10.280;2023-01-30T08:49:14;100649.50;;;3.18;100.00
62418;BME280;48456;54.242;10.280;2023-01-30T08:54:25;100445.00;;;2.49;100.00
62418;BME280;48456;54.242;10.280;2023-01-30T08:56:51;100438.81;;;2.45;100.00
62418;BME280;48456;54.242;10.280;2023-01-30T08:59:18;100459.81;;;2.50;100.00
62418;BME280;48456;54.242;10.280;2023-01-30T09:01:44;100507.16;;;2.64;100.00
62418;BME280;48456;54.242;10.280;2023-01-30T09:04:10;100484.28;;;2.55;100.00
62418;BME280;48456;54.242;10.280;2023-01-30T09:06:36;100438.69;;;2.39;100.00
62418;BME280;48456;54.242;10.280;2023-01-30T09:11:38;100375.38;;;2.11;100.00
62418;BME280;48456;54.242;10.280;2023-01-30T09:14:05;100365.84;;;2.11;100.00
62418;BME280;48456;54.242;10.280;2023-01-30T09:16:31;100373.03;;;2.22;100.00
62418;BME280;48456;54.242;10.280;2023-01-30T09:18:57;100388.00;;;2.30;100.00
62418;BME280;48456;54.242;10.280;2023-01-30T09:21:24;100402.16;;;2.40;100.00
62418;BME280;48456;54.242;10.280;2023-01-30T09:23:50;100418.03;;;2.50;100.00
62418;BME280;48456;54.242;10.280;2023-01-30T09:26:16;100439.88;;;2.53;100.00
62418;BME280;48456;54.242;10.280;2023-01-30T09:28:43;100445.19;;;2.58;100.00
62418;BME280;48456;54.242;10.280;2023-01-30T09:31:09;100446.19;;;2.63;100.00
62418;BME280;48456;54.242;10.280;2023-01-30T09:33:36;100477.75;;;2.74;100.00
62418;BME280;48456;54.242;10.280;2023-01-30T09:36:02;100511.09;;;2.84;100.00
62418;BME280;48456;54.242;10.280;2023-01-30T09:38:28;100560.31;;;3.04;100.00
62418;BME280;48456;54.242;10.280;2023-01-30T09:46:10;100598.19;;;3.22;100.00
62418;BME280;48456;54.242;10.280;2023-01-30T09:48:58;100622.72;;;3.29;100.00
62418;BME280;48456;54.242;10.280;2023-01-30T09:59:03;100656.28;;;3.48;100.00
62418;BME280;48456;54.242;10.280;2023-01-30T10:01:33;100668.66;;;3.56;100.00
62418;BME280;48456;54.242;10.280;2023-01-30T10:06:29;100748.91;;;3.97;100.00
62418;BME280;48456;54.242;10.280;2023-01-30T10:24:44;100511.91;;;3.22;100.00
62418;BME280;48456;54.242;10.280;2023-01-30T10:27:12;100478.66;;;3.15;100.00
62418;BME280;48456;54.242;10.280;2023-01-30T10:29:41;100510.34;;;3.30;100.00
62418;BME280;48456;54.242;10.280;2023-01-30T10:34:48;100490.16;;;3.23;100.00
62418;BME280;48456;54.242;10.280;2023-01-30T10:39:44;100447.34;;;3.18;100.00
62418;BME280;48456;54.242;10.280;2023-01-30T10:43:09;100450.00;;;3.21;100.00
62418;BME280;48456;54.242;10.280;2023-01-30T10:50:33;100425.66;;;3.22;100.00
62418;BME280;48456;54.242;10.280;2023-01-30T10:53:08;100455.44;;;3.32;100.00
62418;BME280;48456;54.242;10.280;2023-01-30T10:55:42;100490.53;;;3.43;100.00
62418;BME280;48456;54.242;10.280;2023-01-30T10:58:16;100502.00;;;3.50;100.00
62418;BME280;48456;54.242;10.280;2023-01-30T11:00:50;100557.34;;;3.72;100.00
62418;BME280;48456;54.242;10.280;2023-01-30T11:03:24;100508.16;;;3.52;100.00
62418;BME280;48456;54.242;10.280;2023-01-30T11:05:55;100518.69;;;3.57;100.00
62418;BME280;48456;54.242;10.280;2023-01-30T11:08:29;100512.56;;;3.55;100.00
62418;BME280;48456;54.242;10.280;2023-01-30T11:10:56;100513.44;;;3.54;100.00
62418;BME280;48456;54.242;10.280;2023-01-30T11:13:30;100510.81;;;3.54;100.00
62418;BME280;48456;54.242;10.280;2023-01-30T11:15:58;100530.09;;;3.59;100.00
62418;BME280;48456;54.242;10.280;2023-01-30T11:18:25;100537.19;;;3.64;100.00
62418;BME280;48456;54.242;10.280;2023-01-30T11:21:24;100537.22;;;3.68;100.00
62418;BME280;48456;54.242;10.280;2023-01-30T11:24:18;100488.09;;;3.53;100.00
62418;BME280;48456;54.242;10.280;2023-01-30T11:26:45;100430.19;;;3.32;100.00
62418;BME280;48456;54.242;10.280;2023-01-30T11:31:48;100479.44;;;3.55;100.00
62418;BME280;48456;54.242;10.280;2023-01-30T11:34:16;100439.06;;;3.41;100.00
62418;BME280;48456;54.242;10.280;2023-01-30T11:36:43;100410.16;;;3.34;100.00
62418;BME280;48456;54.242;10.280;2023-01-30T11:41:42;100411.94;;;3.34;100.00
62418;BME280;48456;54.242;10.280;2023-01-30T11:44:10;100405.81;;;3.33;100.00
62418;BME280;48456;54.242;10.280;2023-01-30T11:46:37;100433.94;;;3.45;100.00
62418;BME280;48456;54.242;10.280;2023-01-30T11:49:13;100460.28;;;3.56;100.00
62418;BME280;48456;54.242;10.280;2023-01-30T11:52:00;100481.38;;;3.66;100.00
62418;BME280;48456;54.242;10.280;2023-01-30T11:54:37;100591.97;;;4.01;100.00
62418;BME280;48456;54.242;10.280;2023-01-30T11:57:05;100671.13;;;4.34;100.00
62418;BME280;48456;54.242;10.280;2023-01-30T11:59:41;100713.41;;;4.54;100.00
62418;BME280;48456;54.242;10.280;2023-01-30T12:02:25;100697.63;;;4.50;100.00
62418;BME280;48456;54.242;10.280;2023-01-30T12:04:56;100624.66;;;4.22;100.00
62418;BME280;48456;54.242;10.280;2023-01-30T12:07:25;100563.09;;;3.98;100.00
62418;BME280;48456;54.242;10.280;2023-01-30T12:09:52;100514.88;;;3.85;100.00
62418;BME280;48456;54.242;10.280;2023-01-30T12:14:48;100501.69;;;3.79;100.00
62418;BME280;48456;54.242;10.280;2023-01-30T12:17:19;100501.69;;;3.79;100.00
62418;BME280;48456;54.242;10.280;2023-01-30T12:19:50;100477.09;;;3.69;100.00
62418;BME280;48456;54.242;10.280;2023-01-30T12:22:30;100443.78;;;3.59;100.00
62418;BME280;48456;54.242;10.280;2023-01-30T12:25:09;100468.34;;;3.67;100.00
62418;BME280;48456;54.242;10.280;2023-01-30T12:28:13;100520.94;;;3.83;100.00
62418;BME280;48456;54.242;10.280;2023-01-30T12:30:33;100592.13;;;4.11;100.00
62418;BME280;48456;54.242;10.280;2023-01-30T12:33:02;100638.66;;;4.26;100.00
62418;BME280;48456;54.242;10.280;2023-01-30T12:36:15;100643.03;;;4.27;100.00
62418;BME280;48456;54.242;10.280;2023-01-30T12:40:48;100581.63;;;4.09;100.00
62418;BME280;48456;54.242;10.280;2023-01-30T12:43:35;100581.66;;;4.11;100.00
62418;BME280;48456;54.242;10.280;2023-01-30T12:46:20;100601.88;;;4.18;100.00
62418;BME280;48456;54.242;10.280;2023-01-30T12:56:51;100525.47;;;3.92;100.00
62418;BME280;48456;54.242;10.280;2023-01-30T13:06:57;100589.53;;;4.11;100.00
62418;BME280;48456;54.242;10.280;2023-01-30T13:09:35;100603.53;;;4.14;100.00
62418;BME280;48456;54.242;10.280;2023-01-30T13:12:09;100627.28;;;4.24;100.00
62418;BME280;48456;54.242;10.280;2023-01-30T13:14:40;100625.47;;;4.21;100.00
62418;BME280;48456;54.242;10.280;2023-01-30T13:17:13;100604.50;;;4.18;100.00
62418;BME280;48456;54.242;10.280;2023-01-30T13:22:17;100607.94;;;4.15;100.00
62418;BME280;48456;54.242;10.280;2023-01-30T13:27:54;100523.69;;;3.89;100.00
62418;BME280;48456;54.242;10.280;2023-01-30T13:30:22;100598.31;;;4.14;100.00
62418;BME280;48456;54.242;10.280;2023-01-30T13:32:50;100761.97;;;4.81;100.00
62418;BME280;48456;54.242;10.280;2023-01-30T13:38:07;100839.59;;;5.21;100.00
62418;BME280;48456;54.242;10.280;2023-01-30T13:40:41;100723.66;;;4.88;100.00
62418;BME280;48456;54.242;10.280;2023-01-30T13:45:41;100601.34;;;4.38;100.00
62418;BME280;48456;54.242;10.280;2023-01-30T13:48:18;100197.84;;;4.21;100.00
62418;BME280;48456;54.242;10.280;2023-01-30T13:53:37;100204.75;;;4.14;100.00
62418;BME280;48456;54.242;10.280;2023-01-30T13:59:14;100204.06;;;4.29;100.00
62418;BME280;48456;54.242;10.280;2023-01-30T14:09:42;100229.19;;;4.16;100.00
62418;BME280;48456;54.242;10.280;2023-01-30T14:12:22;100231.88;;;4.21;100.00
62418;BME280;48456;54.242;10.280;2023-01-30T14:17:35;100260.78;;;4.28;100.00
62418;BME280;48456;54.242;10.280;2023-01-30T14:20:12;100258.94;;;4.23;100.00
62418;BME280;48456;54.242;10.280;2023-01-30T14:22:47;100281.56;;;4.16;100.00
62418;BME280;48456;54.242;10.280;2023-01-30T14:27:51;100278.84;;;4.08;100.00
62418;BME280;48456;54.242;10.280;2023-01-30T14:32:57;100306.22;;;4.31;100.00
62418;BME280;48456;54.242;10.280;2023-01-30T14:35:26;100303.44;;;4.21;100.00
62418;BME280;48456;54.242;10.280;2023-01-30T14:38:03;100313.91;;;4.21;100.00
62418;BME280;48456;54.242;10.280;2023-01-30T14:40:30;100307.03;;;4.26;100.00
62418;BME280;48456;54.242;10.280;2023-01-30T14:45:47;100346.78;;;4.02;100.00
62418;BME280;48456;54.242;10.280;2023-01-30T14:48:23;100358.06;;;3.96;100.00
62418;BME280;48456;54.242;10.280;2023-01-30T14:53:45;100381.75;;;4.04;100.00
62418;BME280;48456;54.242;10.280;2023-01-30T14:56:13;100388.72;;;4.05;100.00
62418;BME280;48456;54.242;10.280;2023-01-30T14:58:49;100399.38;;;4.16;100.00
62418;BME280;48456;54.242;10.280;2023-01-30T15:01:16;100403.53;;;4.05;100.00
62418;BME280;48456;54.242;10.280;2023-01-30T15:03:45;100409.94;;;4.24;100.00
62418;BME280;48456;54.242;10.280;2023-01-30T15:06:12;100406.38;;;4.19;100.00
62418;BME280;48456;54.242;10.280;2023-01-30T15:08:40;100425.22;;;3.96;100.00